Time;durP1;ratioP1;P1;durP2;ratioP2;P2;SDS_P1;SDS_P2;PMS_P1;PMS_P2;Temp;Humidity;BMP_temperature;BMP_pressure;BME280_temperature;BME280_humidity;BME280_pressure;Samples;Min_cycle;Max_cycle;Signal;HPM_P1;HPM_P2
2022/07/09 00:00:31;;;;;;;6.75;3.53;;;13.40;99.90;;;;;;5022306;28;20197;-90
2022/07/09 00:02:57;;;;;;;5.53;3.33;;;13.30;99.90;;;;;;5009681;28;20441;-90
2022/07/09 00:05:22;;;;;;;4.68;3.17;;;13.30;99.90;;;;;;5024105;28;20061;-91
2022/07/09 00:07:48;;;;;;;4.05;3.72;;;13.20;99.90;;;;;;5004178;28;20033;-91
2022/07/09 00:10:14;;;;;;;6.18;3.95;;;13.20;99.90;;;;;;5013530;28;20029;-90
2022/07/09 00:12:39;;;;;;;7.82;4.22;;;13.10;99.90;;;;;;4999736;28;20026;-89
2022/07/09 00:15:06;;;;;;;7.03;3.03;;;13.00;99.90;;;;;;5021323;28;20123;-91
2022/07/09 00:17:31;;;;;;;5.47;4.38;;;12.90;99.90;;;;;;5023475;28;20026;-91
2022/07/09 00:19:57;;;;;;;6.00;3.45;;;12.90;99.90;;;;;;5025864;28;20034;-90
2022/07/09 00:22:23;;;;;;;8.43;3.65;;;12.80;99.90;;;;;;5030948;28;20085;-90
2022/07/09 00:24:49;;;;;;;6.40;3.60;;;12.80;99.90;;;;;;4999440;28;20031;-90
2022/07/09 00:27:15;;;;;;;5.68;3.90;;;12.80;99.90;;;;;;4983476;28;20098;-90
2022/07/09 00:29:40;;;;;;;5.20;2.85;;;12.70;99.90;;;;;;4999636;28;20438;-91
2022/07/09 00:32:06;;;;;;;4.47;2.70;;;12.70;99.90;;;;;;5019960;28;20034;-91
2022/07/09 00:34:33;;;;;;;2.92;2.58;;;12.60;99.90;;;;;;5014801;28;20034;-90
2022/07/09 00:36:59;;;;;;;2.58;2.25;;;12.60;99.90;;;;;;5001737;28;20105;-90
2022/07/09 00:39:25;;;;;;;4.60;2.80;;;12.60;99.90;;;;;;4974651;28;20029;-90
2022/07/09 00:42:00;;;;;;;4.03;2.95;;;12.50;99.90;;;;;;4987432;28;20023;-91
2022/07/09 00:44:26;;;;;;;3.88;3.08;;;12.50;99.90;;;;;;4997536;28;20036;-90
2022/07/09 00:46:52;;;;;;;3.35;2.25;;;12.50;99.90;;;;;;5006127;28;20109;-91
2022/07/09 00:49:17;;;;;;;4.10;3.28;;;12.40;99.90;;;;;;5000181;28;20037;-90
2022/07/09 00:51:43;;;;;;;4.82;2.83;;;12.40;99.90;;;;;;5010139;28;20022;-90
2022/07/09 00:54:09;;;;;;;5.63;2.58;;;12.40;99.90;;;;;;4994267;28;20056;-91
2022/07/09 00:56:34;;;;;;;5.20;3.13;;;12.40;99.90;;;;;;5005962;28;20517;-89
2022/07/09 00:59:01;;;;;;;3.90;2.95;;;12.40;99.90;;;;;;5017074;28;20068;-91
2022/07/09 01:01:27;;;;;;;3.67;3.38;;;12.40;99.90;;;;;;4998429;28;20037;-91
2022/07/09 01:03:53;;;;;;;9.40;3.45;;;12.30;99.90;;;;;;4995186;28;20034;-90
2022/07/09 01:06:18;;;;;;;6.53;2.72;;;12.30;99.90;;;;;;5005572;28;20056;-91
2022/07/09 01:08:44;;;;;;;5.57;2.50;;;12.30;99.90;;;;;;4974981;28;20056;-90
2022/07/09 01:11:10;;;;;;;3.63;2.72;;;12.10;99.90;;;;;;5006207;28;20105;-90
2022/07/09 01:13:35;;;;;;;4.28;2.85;;;12.10;99.90;;;;;;5006121;28;20100;-90
2022/07/09 01:16:01;;;;;;;5.50;3.30;;;12.10;99.90;;;;;;5010551;28;20046;-90
2022/07/09 01:18:27;;;;;;;4.40;3.30;;;12.00;99.90;;;;;;5023706;28;20022;-91
2022/07/09 01:20:52;;;;;;;3.83;2.75;;;12.00;99.90;;;;;;5005152;28;20390;-90
2022/07/09 01:23:18;;;;;;;4.38;3.20;;;12.00;99.90;;;;;;5018811;28;20516;-91
2022/07/09 01:25:44;;;;;;;5.47;3.30;;;12.00;99.90;;;;;;5003554;28;20589;-91
2022/07/09 01:28:10;;;;;;;4.38;2.88;;;12.00;99.90;;;;;;4992533;28;20061;-91
2022/07/09 01:30:38;;;;;;;4.40;3.08;;;12.00;99.90;;;;;;4993174;28;20033;-91
2022/07/09 01:33:04;;;;;;;7.72;3.47;;;12.00;99.90;;;;;;5028071;28;20026;-90
2022/07/09 01:35:30;;;;;;;4.30;2.53;;;12.10;99.90;;;;;;5003124;28;20033;-90
2022/07/09 01:37:56;;;;;;;9.73;3.25;;;12.10;99.90;;;;;;5004552;28;20053;-91
2022/07/09 01:40:22;;;;;;;3.28;2.90;;;12.10;99.90;;;;;;4993500;28;20053;-90
2022/07/09 01:42:48;;;;;;;4.72;3.15;;;12.20;99.90;;;;;;5011130;28;20032;-90
2022/07/09 01:45:14;;;;;;;3.83;3.20;;;12.20;99.90;;;;;;4988342;28;20109;-90
2022/07/09 01:47:41;;;;;;;4.45;2.70;;;12.20;99.90;;;;;;5009941;28;20038;-90
2022/07/09 01:50:07;;;;;;;4.15;2.88;;;12.30;99.90;;;;;;5001277;28;20031;-90
2022/07/09 01:52:33;;;;;;;5.20;3.97;;;12.30;99.90;;;;;;4994595;28;20041;-90
2022/07/09 01:54:59;;;;;;;4.15;3.30;;;12.30;99.90;;;;;;4994089;28;20025;-90
2022/07/09 01:57:26;;;;;;;4.35;3.60;;;12.30;99.90;;;;;;5012891;28;20029;-90
2022/07/09 01:59:52;;;;;;;4.68;3.33;;;12.30;99.90;;;;;;5039475;28;20045;-91
2022/07/09 02:02:18;;;;;;;8.95;3.70;;;12.20;99.90;;;;;;5007193;28;20139;-90
2022/07/09 02:04:45;;;;;;;3.60;3.30;;;12.20;99.90;;;;;;4994218;28;20061;-90
2022/07/09 02:07:11;;;;;;;4.25;3.85;;;12.20;99.90;;;;;;4997930;28;20545;-90
2022/07/09 02:09:37;;;;;;;4.28;3.83;;;12.20;99.90;;;;;;4999469;28;20030;-90
2022/07/09 02:12:04;;;;;;;4.65;3.80;;;12.20;99.90;;;;;;5012383;28;20028;-90
2022/07/09 02:14:30;;;;;;;6.78;3.35;;;12.10;99.90;;;;;;5003266;28;20113;-90
2022/07/09 02:16:56;;;;;;;6.07;3.88;;;12.10;99.90;;;;;;4996118;28;20653;-90
2022/07/09 02:19:22;;;;;;;4.15;3.85;;;12.10;99.90;;;;;;4998641;28;20397;-91
2022/07/09 02:21:48;;;;;;;3.97;3.35;;;12.10;99.90;;;;;;5013613;28;20029;-90
2022/07/09 02:24:14;;;;;;;4.45;3.63;;;12.10;99.90;;;;;;5016589;28;20671;-91
2022/07/09 02:26:40;;;;;;;4.40;4.10;;;12.10;99.90;;;;;;4995521;28;20129;-90
2022/07/09 02:29:06;;;;;;;4.43;4.03;;;12.10;99.90;;;;;;4999125;28;20042;-91
2022/07/09 02:31:31;;;;;;;4.43;3.92;;;12.10;99.90;;;;;;5013424;28;20026;-90
2022/07/09 02:33:57;;;;;;;5.88;3.67;;;12.10;99.90;;;;;;5009093;28;20486;-90
2022/07/09 02:36:23;;;;;;;4.82;4.28;;;12.10;99.90;;;;;;5009354;28;20027;-90
2022/07/09 02:38:48;;;;;;;4.88;4.47;;;12.10;99.90;;;;;;5001100;28;20037;-90
2022/07/09 02:41:14;;;;;;;6.35;4.50;;;12.10;99.90;;;;;;4982063;28;20053;-91
2022/07/09 02:43:43;;;;;;;5.57;5.03;;;12.10;99.90;;;;;;4980757;28;20025;-90
2022/07/09 02:46:12;;;;;;;5.63;4.72;;;12.10;99.90;;;;;;5003323;28;20629;-91
2022/07/09 02:48:38;;;;;;;6.55;4.80;;;12.20;99.90;;;;;;5018533;28;20037;-90
2022/07/09 02:51:04;;;;;;;7.15;4.53;;;12.10;99.90;;;;;;5019755;28;20018;-91
2022/07/09 02:53:30;;;;;;;5.28;4.68;;;12.10;99.90;;;;;;5010020;28;20038;-90
2022/07/09 02:55:56;;;;;;;5.22;4.50;;;12.10;99.90;;;;;;5011296;28;20041;-90
2022/07/09 02:58:22;;;;;;;4.85;4.45;;;12.00;99.90;;;;;;5020474;28;20397;-91
2022/07/09 03:00:48;;;;;;;7.15;4.57;;;12.00;99.90;;;;;;5008128;28;20414;-91
2022/07/09 03:03:14;;;;;;;5.10;4.53;;;12.00;99.90;;;;;;5004014;28;20501;-91
2022/07/09 03:05:39;;;;;;;4.43;4.03;;;11.90;99.90;;;;;;5026161;28;20030;-89
2022/07/09 03:08:05;;;;;;;6.65;4.47;;;11.90;99.90;;;;;;5005793;28;20144;-91
2022/07/09 03:10:32;;;;;;;6.05;4.28;;;11.90;99.90;;;;;;5003401;28;20031;-90
2022/07/09 03:12:57;;;;;;;9.30;4.50;;;11.90;99.90;;;;;;4998155;28;20111;-91
2022/07/09 03:15:23;;;;;;;4.60;3.95;;;11.90;99.90;;;;;;5023334;28;20457;-91
2022/07/09 03:17:49;;;;;;;6.68;4.68;;;11.80;99.90;;;;;;4988989;28;20371;-91
2022/07/09 03:20:15;;;;;;;4.38;3.97;;;11.80;99.90;;;;;;5007543;28;20558;-90
2022/07/09 03:22:41;;;;;;;4.35;4.00;;;11.80;99.90;;;;;;4999237;28;20064;-89
2022/07/09 03:25:07;;;;;;;4.70;3.85;;;11.80;99.90;;;;;;5002136;28;20058;-90
2022/07/09 03:27:33;;;;;;;5.55;3.85;;;11.90;99.90;;;;;;5000034;28;20113;-90
2022/07/09 03:30:00;;;;;;;4.68;4.10;;;11.80;99.90;;;;;;5021949;28;20052;-90
2022/07/09 03:32:26;;;;;;;5.88;4.93;;;11.90;99.90;;;;;;4995442;28;20053;-90
2022/07/09 03:34:52;;;;;;;5.03;4.05;;;11.90;99.90;;;;;;4979106;28;20034;-91
2022/07/09 03:37:21;;;;;;;5.28;4.78;;;11.90;99.90;;;;;;4986681;28;20037;-90
2022/07/09 03:39:47;;;;;;;5.90;4.57;;;11.90;99.90;;;;;;4995265;28;20041;-90
2022/07/09 03:42:13;;;;;;;4.63;4.22;;;12.00;99.90;;;;;;5020230;28;20034;-90
2022/07/09 03:44:39;;;;;;;4.55;4.15;;;12.00;99.90;;;;;;4994614;28;20038;-90
2022/07/09 03:47:06;;;;;;;5.32;4.82;;;12.10;99.90;;;;;;5004902;28;20034;-91
2022/07/09 03:49:32;;;;;;;8.48;5.35;;;12.20;99.90;;;;;;4993904;28;20046;-90
2022/07/09 03:51:58;;;;;;;5.57;4.32;;;12.30;99.90;;;;;;5006854;28;20056;-90
2022/07/09 03:54:23;;;;;;;5.00;4.53;;;12.40;99.90;;;;;;5029470;28;20025;-91
2022/07/09 03:56:50;;;;;;;5.13;3.83;;;12.40;99.90;;;;;;4985812;28;20036;-91
2022/07/09 03:59:16;;;;;;;4.22;3.40;;;12.50;99.90;;;;;;4999924;28;20450;-91
2022/07/09 04:01:42;;;;;;;9.55;4.15;;;12.60;99.90;;;;;;4986702;28;20072;-89
2022/07/09 04:04:07;;;;;;;4.57;3.83;;;12.60;99.90;;;;;;4990785;28;20088;-91
2022/07/09 04:06:33;;;;;;;6.65;4.80;;;12.60;99.90;;;;;;5005903;28;20022;-90
2022/07/09 04:09:03;;;;;;;6.10;3.63;;;12.70;99.90;;;;;;5000432;28;20026;-91
2022/07/09 04:11:33;;;;;;;7.40;4.20;;;12.60;99.90;;;;;;5017731;28;20030;-91
2022/07/09 04:14:00;;;;;;;8.45;4.55;;;12.70;99.90;;;;;;5007310;28;20278;-91
2022/07/09 04:16:25;;;;;;;4.20;3.78;;;12.70;99.90;;;;;;4979687;28;20030;-90
2022/07/09 04:18:51;;;;;;;4.03;3.63;;;12.70;99.90;;;;;;4997858;28;20030;-91
2022/07/09 04:21:17;;;;;;;4.57;3.85;;;12.70;99.90;;;;;;5008077;28;20073;-90
2022/07/09 04:23:43;;;;;;;6.90;3.85;;;12.80;99.90;;;;;;4992429;28;20042;-90
2022/07/09 04:26:09;;;;;;;3.95;3.60;;;12.80;99.90;;;;;;5015549;28;20025;-91
2022/07/09 04:28:37;;;;;;;4.35;3.92;;;12.80;99.90;;;;;;5006558;28;20085;-90
2022/07/09 04:31:04;;;;;;;5.32;3.97;;;12.80;99.90;;;;;;4996060;28;20054;-90
2022/07/09 04:33:29;;;;;;;4.57;4.18;;;12.90;99.90;;;;;;4997194;28;20030;-91
2022/07/09 04:35:55;;;;;;;6.30;4.30;;;12.90;99.90;;;;;;5028901;28;20025;-91
2022/07/09 04:38:21;;;;;;;9.18;4.13;;;12.90;99.90;;;;;;4997480;28;20034;-91
2022/07/09 04:40:47;;;;;;;4.47;4.07;;;12.90;99.90;;;;;;5010163;28;20026;-91
2022/07/09 04:43:12;;;;;;;5.22;4.20;;;13.00;99.90;;;;;;4997876;28;20033;-90
2022/07/09 04:45:38;;;;;;;4.70;3.65;;;13.10;99.90;;;;;;5010434;28;20041;-91
2022/07/09 04:48:04;;;;;;;4.95;4.55;;;13.10;99.90;;;;;;4999066;28;20407;-91
2022/07/09 04:50:30;;;;;;;5.80;3.55;;;13.20;99.90;;;;;;4977583;28;20030;-91
2022/07/09 04:52:55;;;;;;;5.38;4.28;;;13.30;99.90;;;;;;5008628;28;20049;-90
2022/07/09 04:55:22;;;;;;;4.07;3.70;;;13.40;99.90;;;;;;5004419;28;20491;-91
2022/07/09 04:57:48;;;;;;;6.40;3.22;;;13.50;99.90;;;;;;4994984;28;20029;-91
2022/07/09 05:00:15;;;;;;;4.80;3.63;;;13.70;99.90;;;;;;4990540;28;20022;-90
2022/07/09 05:02:42;;;;;;;4.75;3.30;;;13.80;99.90;;;;;;4985736;28;20501;-88
2022/07/09 05:05:08;;;;;;;3.53;3.22;;;13.90;99.90;;;;;;5002410;28;20031;-91
2022/07/09 05:07:34;;;;;;;3.47;3.13;;;14.00;99.90;;;;;;5011711;28;20030;-90
2022/07/09 05:10:01;;;;;;;8.63;3.53;;;14.20;99.90;;;;;;5018999;28;20088;-90
2022/07/09 05:12:27;;;;;;;5.53;3.40;;;14.30;99.90;;;;;;5019197;28;20025;-91
2022/07/09 05:14:53;;;;;;;3.35;3.05;;;14.50;99.90;;;;;;5003670;28;20034;-90
2022/07/09 05:17:18;;;;;;;3.05;2.85;;;14.60;99.90;;;;;;4996378;28;20035;-91
2022/07/09 05:19:44;;;;;;;3.92;3.17;;;14.80;99.90;;;;;;5017858;28;20025;-91
2022/07/09 05:22:10;;;;;;;3.70;3.40;;;15.10;99.90;;;;;;4999962;28;20019;-92
2022/07/09 05:24:35;;;;;;;3.20;2.55;;;15.30;99.90;;;;;;5012390;28;20030;-91
2022/07/09 05:27:01;;;;;;;6.13;2.97;;;15.40;99.90;;;;;;5035157;28;20501;-92
2022/07/09 05:29:27;;;;;;;4.18;3.15;;;15.70;99.90;;;;;;4997582;28;20406;-90
2022/07/09 05:31:53;;;;;;;3.40;2.08;;;16.50;99.90;;;;;;5010328;28;20030;-92
2022/07/09 05:34:19;;;;;;;4.30;2.22;;;17.80;99.90;;;;;;4997589;28;20575;-93
2022/07/09 05:36:44;;;;;;;2.38;1.75;;;19.50;99.90;;;;;;4999353;28;20060;-91
2022/07/09 05:39:10;;;;;;;1.70;1.50;;;21.10;99.90;;;;;;4993325;28;20033;-92
2022/07/09 05:41:36;;;;;;;1.63;1.48;;;22.40;99.90;;;;;;4995996;28;20433;-92
2022/07/09 05:44:03;;;;;;;2.58;1.40;;;23.80;99.90;;;;;;4994841;28;20030;-92
2022/07/09 05:46:29;;;;;;;1.40;1.30;;;24.80;94.10;;;;;;4985854;28;20030;-92
2022/07/09 05:48:55;;;;;;;3.35;1.40;;;25.10;82.40;;;;;;5008130;28;20025;-92
2022/07/09 05:51:21;;;;;;;1.58;1.20;;;25.70;75.50;;;;;;5025516;28;20108;-92
2022/07/09 05:53:46;;;;;;;2.42;1.33;;;25.90;74.10;;;;;;4999523;28;20202;-92
2022/07/09 05:56:12;;;;;;;2.78;1.40;;;26.50;72.70;;;;;;5009833;28;20049;-92
2022/07/09 05:58:38;;;;;;;4.43;2.00;;;26.50;69.30;;;;;;5008353;28;20551;-92
2022/07/09 06:01:05;;;;;;;2.28;1.45;;;27.30;66.30;;;;;;5025927;28;20105;-90
2022/07/09 06:03:31;;;;;;;3.00;1.20;;;27.90;62.60;;;;;;5002367;28;20434;-90
2022/07/09 06:05:57;;;;;;;2.30;1.17;;;27.80;61.60;;;;;;4990827;28;20077;-90
2022/07/09 06:08:24;;;;;;;3.72;1.50;;;27.40;62.50;;;;;;5001970;28;20037;-90
2022/07/09 06:10:50;;;;;;;1.88;1.25;;;26.50;63.80;;;;;;4991029;28;20033;-89
2022/07/09 06:13:15;;;;;;;3.15;1.48;;;26.10;68.00;;;;;;5011493;28;20038;-88
2022/07/09 06:15:41;;;;;;;1.40;1.30;;;25.50;69.40;;;;;;4995823;28;20026;-89
2022/07/09 06:18:07;;;;;;;2.65;1.40;;;24.80;75.20;;;;;;5010324;28;20037;-89
2022/07/09 06:20:33;;;;;;;1.80;1.40;;;24.40;80.70;;;;;;5025027;28;20041;-90
2022/07/09 06:22:58;;;;;;;2.67;1.50;;;24.00;90.20;;;;;;5018735;28;20030;-89
2022/07/09 06:25:24;;;;;;;2.85;1.40;;;23.50;92.80;;;;;;5012760;28;20176;-90
2022/07/09 06:27:49;;;;;;;3.00;1.70;;;23.50;99.90;;;;;;4993935;28;21324;-89
2022/07/09 06:30:15;;;;;;;2.90;1.63;;;24.20;95.20;;;;;;4988429;28;20505;-89
2022/07/09 06:32:41;;;;;;;3.08;1.30;;;24.80;86.80;;;;;;5013401;28;20121;-89
2022/07/09 06:35:08;;;;;;;3.05;1.20;;;24.90;88.30;;;;;;5009850;28;20057;-89
2022/07/09 06:37:34;;;;;;;6.82;1.55;;;24.80;83.40;;;;;;5015715;28;20036;-90
2022/07/09 06:39:59;;;;;;;2.30;1.30;;;24.60;86.30;;;;;;4981675;28;20048;-89
2022/07/09 06:42:26;;;;;;;3.08;1.25;;;24.70;86.00;;;;;;5001459;28;20045;-89
2022/07/09 06:44:52;;;;;;;2.15;1.10;;;25.40;83.40;;;;;;5029933;28;20041;-89
2022/07/09 06:47:19;;;;;;;1.02;1.00;;;25.80;77.50;;;;;;4995396;28;20058;-90
2022/07/09 06:49:44;;;;;;;2.50;1.27;;;26.10;73.80;;;;;;4982308;28;20031;-90
2022/07/09 06:52:10;;;;;;;1.75;0.85;;;26.60;71.70;;;;;;5003365;28;20375;-90
2022/07/09 06:54:36;;;;;;;1.75;1.10;;;26.90;70.10;;;;;;5023508;28;20417;-90
2022/07/09 06:57:03;;;;;;;2.05;1.23;;;26.90;68.80;;;;;;4988927;28;20030;-90
2022/07/09 06:59:29;;;;;;;1.92;1.02;;;26.80;68.80;;;;;;4985690;28;20042;-89
2022/07/09 07:01:55;;;;;;;3.22;1.20;;;26.60;68.90;;;;;;4994174;28;20031;-89
2022/07/09 07:04:21;;;;;;;2.42;1.33;;;26.60;72.00;;;;;;5006029;28;20060;-89
2022/07/09 07:06:48;;;;;;;2.33;1.17;;;26.20;73.10;;;;;;5013756;28;20030;-91
2022/07/09 07:09:20;;;;;;;1.48;1.00;;;25.80;76.10;;;;;;4993782;28;20032;-92
2022/07/09 07:11:47;;;;;;;3.10;1.05;;;25.70;75.70;;;;;;5016664;28;20127;-92
2022/07/09 07:14:12;;;;;;;3.25;1.10;;;25.40;80.60;;;;;;5016734;28;20038;-91
2022/07/09 07:16:38;;;;;;;3.35;1.20;;;25.40;83.40;;;;;;5024173;28;20026;-90
2022/07/09 07:19:04;;;;;;;1.90;1.20;;;25.10;91.40;;;;;;5014019;28;20022;-91
2022/07/09 07:21:29;;;;;;;2.38;1.10;;;25.00;86.80;;;;;;5025172;28;20105;-92
2022/07/09 07:23:55;;;;;;;2.88;1.45;;;24.80;92.90;;;;;;5026221;28;20030;-91
2022/07/09 07:26:21;;;;;;;2.75;1.38;;;24.60;94.80;;;;;;5017525;28;20030;-93
2022/07/09 07:28:48;;;;;;;2.00;1.17;;;24.40;95.80;;;;;;4998852;28;20520;-92
2022/07/09 07:31:14;;;;;;;2.30;1.10;;;24.40;99.90;;;;;;5032823;28;20105;-92
2022/07/09 07:33:40;;;;;;;2.35;1.10;;;24.40;98.20;;;;;;4996255;28;20121;-90
2022/07/09 07:36:06;;;;;;;3.15;1.25;;;24.40;99.20;;;;;;5023089;28;20532;-92
2022/07/09 07:38:33;;;;;;;2.97;1.48;;;24.60;99.90;;;;;;5021981;28;20026;-91
2022/07/09 07:40:59;;;;;;;3.75;1.55;;;24.90;97.70;;;;;;5021089;28;20054;-93
2022/07/09 07:43:25;;;;;;;6.90;1.42;;;25.10;93.70;;;;;;5013458;28;20052;-93
2022/07/09 07:45:51;;;;;;;5.20;1.30;;;25.00;94.30;;;;;;5025987;28;20086;-93
2022/07/09 07:48:16;;;;;;;3.20;1.40;;;24.70;95.20;;;;;;4998917;28;20053;-92
2022/07/09 07:50:42;;;;;;;3.10;1.40;;;24.40;99.30;;;;;;5000896;28;20116;-92
2022/07/09 07:53:08;;;;;;;3.78;1.40;;;24.20;99.90;;;;;;5012422;28;20045;-93
2022/07/09 07:55:34;;;;;;;2.75;1.42;;;24.00;99.90;;;;;;5019173;28;20033;-92
2022/07/09 07:57:59;;;;;;;3.53;1.42;;;23.80;99.90;;;;;;5014348;28;20049;-93
2022/07/09 08:00:25;;;;;;;5.03;1.85;;;23.80;99.90;;;;;;5028435;28;20462;-91
2022/07/09 08:02:51;;;;;;;2.28;1.13;;;23.90;99.90;;;;;;5013751;28;20025;-93
2022/07/09 08:05:17;;;;;;;2.17;1.38;;;23.90;99.90;;;;;;5011431;28;20092;-92
2022/07/09 08:07:43;;;;;;;2.03;1.30;;;23.90;99.90;;;;;;5015029;28;20041;-91
2022/07/09 08:10:09;;;;;;;3.95;1.30;;;24.10;99.90;;;;;;5011961;28;20366;-92
2022/07/09 08:12:34;;;;;;;3.08;1.25;;;24.40;99.90;;;;;;5027521;28;20505;-92
2022/07/09 08:15:00;;;;;;;2.75;1.30;;;24.80;97.60;;;;;;5027987;28;20025;-92
2022/07/09 08:17:26;;;;;;;2.53;1.10;;;25.70;94.00;;;;;;5012629;28;20030;-92
2022/07/09 08:19:52;;;;;;;5.50;1.25;;;27.00;80.90;;;;;;5000383;28;20402;-92
2022/07/09 08:22:17;;;;;;;4.07;1.20;;;27.90;70.20;;;;;;5026931;28;20025;-91
2022/07/09 08:24:43;;;;;;;3.90;1.30;;;27.90;66.10;;;;;;5015787;28;20900;-90
2022/07/09 08:27:09;;;;;;;2.65;0.90;;;27.70;66.40;;;;;;5029309;28;20022;-90
2022/07/09 08:29:35;;;;;;;2.60;1.00;;;27.60;68.40;;;;;;5043373;28;20062;-91
2022/07/09 08:32:02;;;;;;;3.03;0.82;;;27.80;67.20;;;;;;5018214;28;20513;-92
2022/07/09 08:34:27;;;;;;;2.45;1.00;;;28.00;65.60;;;;;;5024152;28;20049;-90
2022/07/09 08:36:53;;;;;;;2.60;0.85;;;28.60;63.40;;;;;;5047026;28;20025;-91
2022/07/09 08:39:19;;;;;;;2.90;1.00;;;29.40;60.10;;;;;;5026476;28;20030;-92
2022/07/09 08:41:44;;;;;;;1.55;0.80;;;29.60;58.60;;;;;;5020316;28;20030;-90
2022/07/09 08:44:11;;;;;;;1.95;1.00;;;29.60;58.80;;;;;;5023048;28;20030;-91
2022/07/09 08:46:37;;;;;;;0.93;0.70;;;29.30;58.90;;;;;;5033475;28;20053;-91
2022/07/09 08:49:03;;;;;;;1.13;0.63;;;29.30;60.40;;;;;;5029072;28;20034;-90
2022/07/09 08:51:31;;;;;;;1.08;0.70;;;29.20;58.80;;;;;;5024241;28;20147;-90
2022/07/09 08:53:57;;;;;;;2.05;0.95;;;28.60;59.00;;;;;;5028594;28;20052;-89
2022/07/09 08:56:23;;;;;;;2.00;0.80;;;27.90;61.00;;;;;;5010528;28;20108;-90
2022/07/09 08:58:49;;;;;;;1.27;0.70;;;27.30;64.60;;;;;;5012787;28;20108;-90
2022/07/09 09:01:17;;;;;;;2.65;0.90;;;27.00;65.00;;;;;;5027084;28;20029;-90
2022/07/09 09:03:43;;;;;;;3.20;0.80;;;26.60;66.70;;;;;;5018028;28;20022;-90
2022/07/09 09:06:11;;;;;;;1.70;0.90;;;26.60;68.30;;;;;;5019559;28;20029;-90
2022/07/09 09:08:44;;;;;;;2.05;1.10;;;26.40;69.10;;;;;;5009845;28;20125;-90
2022/07/09 09:11:20;;;;;;;2.42;0.98;;;26.30;69.80;;;;;;5030447;28;20108;-90
2022/07/09 09:13:49;;;;;;;2.30;1.00;;;26.20;70.80;;;;;;5026384;28;20034;-89
2022/07/09 09:16:17;;;;;;;1.20;0.80;;;26.30;72.20;;;;;;5024247;28;20587;-90
2022/07/09 09:18:45;;;;;;;2.42;1.20;;;26.20;71.50;;;;;;5034482;28;20022;-90
2022/07/09 09:21:11;;;;;;;1.80;1.08;;;25.90;71.90;;;;;;5019102;28;20113;-90
2022/07/09 09:23:41;;;;;;;1.48;0.95;;;25.40;75.10;;;;;;5005615;28;20033;-88
2022/07/09 09:26:12;;;;;;;2.95;0.90;;;25.20;78.50;;;;;;5034588;28;20489;-89
2022/07/09 09:28:51;;;;;;;;;;;24.80;86.70;;;;;;5012618;28;20040;-90
2022/07/09 09:31:32;;;;;;;2.85;1.17;;;24.60;88.40;;;;;;5030329;28;19920;-89
2022/07/09 09:34:18;;;;;;;1.75;1.20;;;24.40;91.40;;;;;;5023376;28;20451;-90
2022/07/09 09:36:47;;;;;;;2.92;1.20;;;24.00;95.80;;;;;;5013373;28;20034;-89
2022/07/09 09:39:28;;;;;;;1.95;1.55;;;23.70;99.90;;;;;;5008561;28;20036;-89
2022/07/09 09:41:55;;;;;;;1.55;0.90;;;23.50;99.90;;;;;;5022410;28;20070;-90
2022/07/09 09:44:23;;;;;;;2.50;1.30;;;23.30;99.90;;;;;;5001788;28;20037;-92
2022/07/09 09:46:49;;;;;;;1.58;1.10;;;23.40;99.90;;;;;;5017057;28;20034;-91
2022/07/09 09:49:16;;;;;;;1.83;1.17;;;23.50;99.90;;;;;;5022588;28;20096;-91
2022/07/09 09:51:44;;;;;;;1.85;1.13;;;23.70;99.90;;;;;;5020880;28;20385;-90
2022/07/09 09:54:11;;;;;;;3.83;1.30;;;23.80;99.90;;;;;;5025454;28;20119;-92
2022/07/09 09:56:39;;;;;;;5.15;1.48;;;23.80;99.90;;;;;;5024226;28;20080;-93
2022/07/09 09:59:05;;;;;;;1.50;1.23;;;23.60;99.90;;;;;;5021941;28;20091;-92
2022/07/09 10:01:31;;;;;;;3.97;1.13;;;23.40;99.90;;;;;;5024705;28;20453;-91
2022/07/09 10:03:57;;;;;;;2.55;1.40;;;23.20;99.90;;;;;;5012453;28;20482;-91
2022/07/09 10:06:24;;;;;;;2.05;1.30;;;23.00;99.90;;;;;;4999238;28;20037;-92
2022/07/09 10:08:51;;;;;;;1.40;1.17;;;22.80;99.90;;;;;;5021264;28;20113;-91
2022/07/09 10:11:16;;;;;;;3.38;1.30;;;22.70;99.90;;;;;;5018483;28;20522;-89
2022/07/09 10:13:56;;;;;;;5.95;1.38;;;22.50;99.90;;;;;;5004508;28;20044;-90
2022/07/09 10:16:41;;;;;;;2.75;1.33;;;22.30;99.90;;;;;;5025571;28;20030;-91
2022/07/09 10:19:07;;;;;;;2.25;1.60;;;22.10;99.90;;;;;;5008041;28;20045;-91
2022/07/09 10:21:39;;;;;;;5.07;1.65;;;22.00;99.90;;;;;;5026014;28;20060;-91
2022/07/09 10:24:06;;;;;;;3.90;1.50;;;21.80;99.90;;;;;;5009684;28;20026;-91
2022/07/09 10:26:42;;;;;;;3.10;1.85;;;21.80;99.90;;;;;;5022713;28;20409;-91
2022/07/09 10:29:24;;;;;;;1.85;1.75;;;21.90;99.90;;;;;;5016361;28;20042;-91
2022/07/09 10:31:51;;;;;;;3.42;1.60;;;22.10;99.90;;;;;;5025954;28;20065;-92
2022/07/09 10:34:35;;;;;;;2.65;1.60;;;22.30;99.90;;;;;;5013403;28;20117;-91
2022/07/09 10:37:03;;;;;;;1.55;1.45;;;22.30;99.90;;;;;;5028888;28;20026;-92
2022/07/09 10:39:29;;;;;;;2.05;1.65;;;22.20;99.90;;;;;;5032045;28;20044;-93
2022/07/09 10:42:03;;;;;;;1.60;1.45;;;22.20;99.90;;;;;;5025406;28;20080;-90
2022/07/09 10:44:37;;;;;;;1.98;1.50;;;22.10;99.90;;;;;;5025066;28;20061;-92
2022/07/09 10:47:04;;;;;;;1.65;1.40;;;22.10;99.90;;;;;;5030275;28;20117;-92
2022/07/09 10:49:30;;;;;;;3.30;1.60;;;22.10;99.90;;;;;;5032633;28;20076;-91
2022/07/09 10:51:57;;;;;;;4.13;1.50;;;22.00;99.90;;;;;;5013462;28;20034;-92
2022/07/09 10:54:26;;;;;;;3.42;1.58;;;22.00;99.90;;;;;;5001570;28;20040;-92
2022/07/09 10:56:56;;;;;;;3.42;1.60;;;22.00;99.90;;;;;;5029313;28;20022;-92
2022/07/09 10:59:22;;;;;;;2.80;1.45;;;22.10;99.90;;;;;;5019615;28;20037;-92
2022/07/09 11:01:50;;;;;;;1.70;1.30;;;22.40;99.90;;;;;;5012785;28;20036;-91
2022/07/09 11:04:29;;;;;;;2.30;1.20;;;22.80;99.90;;;;;;5014957;28;20026;-91
2022/07/09 11:06:56;;;;;;;2.70;1.60;;;23.10;99.90;;;;;;5020203;28;20026;-92
2022/07/09 11:09:22;;;;;;;1.33;1.23;;;23.40;99.90;;;;;;5028951;28;20072;-91
2022/07/09 11:11:48;;;;;;;5.10;1.60;;;23.70;99.90;;;;;;4997560;28;20413;-91
2022/07/09 11:14:14;;;;;;;1.30;1.20;;;23.80;99.90;;;;;;5012581;28;20030;-92
2022/07/09 11:16:40;;;;;;;3.30;1.23;;;23.90;99.90;;;;;;5024144;28;20076;-91
2022/07/09 11:19:19;;;;;;;1.42;1.17;;;24.20;99.90;;;;;;5019589;28;20021;-91
2022/07/09 11:21:45;;;;;;;1.85;1.40;;;24.00;97.20;;;;;;5020424;28;20022;-92
2022/07/09 11:24:14;;;;;;;3.75;1.52;;;23.90;98.90;;;;;;5006962;28;20021;-92
2022/07/09 11:26:40;;;;;;;1.52;1.33;;;23.70;99.90;;;;;;5015920;28;20025;-91
2022/07/09 11:29:09;;;;;;;4.18;2.33;;;23.30;99.90;;;;;;5012267;28;20037;-92
2022/07/09 11:31:50;;;;;;;2.80;1.60;;;22.90;99.90;;;;;;4998806;28;20133;-91
2022/07/09 11:34:16;;;;;;;4.50;1.73;;;22.40;99.90;;;;;;5016310;28;20038;-91
2022/07/09 11:36:43;;;;;;;7.47;2.00;;;22.00;99.90;;;;;;4998009;28;20525;-90
2022/07/09 11:39:09;;;;;;;9.95;2.58;;;21.50;99.90;;;;;;5033210;28;20053;-93
2022/07/09 11:41:44;;;;;;;8.13;2.67;;;21.10;99.90;;;;;;5042150;28;20026;-94
2022/07/09 11:44:18;;;;;;;6.13;2.78;;;20.60;99.90;;;;;;5046267;28;20026;-91
2022/07/09 11:46:44;;;;;;;7.47;3.38;;;20.20;99.90;;;;;;5042858;28;20096;-91
2022/07/09 11:49:16;;;;;;;4.82;3.45;;;19.90;99.90;;;;;;5020242;28;20022;-92
2022/07/09 11:51:42;;;;;;;5.90;3.65;;;19.50;99.90;;;;;;5016322;28;20026;-91
2022/07/09 11:54:08;;;;;;;7.57;3.58;;;19.30;99.90;;;;;;5005611;28;20091;-92
2022/07/09 11:56:45;;;;;;;4.70;3.20;;;19.10;99.90;;;;;;4998684;28;20054;-91
2022/07/09 11:59:11;;;;;;;4.18;3.03;;;19.20;99.90;;;;;;5019173;28;20021;-92
2022/07/09 12:01:38;;;;;;;6.95;2.80;;;19.40;99.90;;;;;;5016957;28;20030;-92
2022/07/09 12:04:04;;;;;;;4.93;2.75;;;19.70;99.90;;;;;;5039132;28;20490;-92
2022/07/09 12:06:29;;;;;;;4.43;2.30;;;20.00;99.90;;;;;;5033764;28;20075;-91
2022/07/09 12:09:04;;;;;;;2.03;1.70;;;20.40;99.90;;;;;;5010374;28;20021;-92
2022/07/09 12:11:30;;;;;;;2.63;1.60;;;20.60;99.90;;;;;;5014093;28;20520;-92
2022/07/09 12:13:56;;;;;;;1.48;1.38;;;20.80;99.90;;;;;;5021878;28;20026;-91
2022/07/09 12:16:22;;;;;;;2.38;1.60;;;20.90;99.90;;;;;;5024341;28;20386;-92
2022/07/09 12:18:48;;;;;;;2.67;1.55;;;21.20;99.90;;;;;;5020633;28;20021;-91
2022/07/09 12:21:13;;;;;;;2.63;1.30;;;21.80;99.90;;;;;;5022566;28;20020;-92
2022/07/09 12:23:39;;;;;;;2.53;1.15;;;22.60;99.90;;;;;;4998743;28;20041;-91
2022/07/09 12:26:05;;;;;;;2.28;1.35;;;23.20;99.90;;;;;;5024230;28;20034;-92
2022/07/09 12:28:30;;;;;;;1.75;1.00;;;23.60;99.90;;;;;;5000387;28;20124;-92
2022/07/09 12:30:56;;;;;;;3.47;1.40;;;24.00;99.90;;;;;;5011457;28;20520;-92
2022/07/09 12:33:21;;;;;;;3.58;1.20;;;24.30;98.60;;;;;;5018762;28;20103;-92
2022/07/09 12:35:47;;;;;;;1.75;1.10;;;24.50;96.40;;;;;;5011668;28;20067;-92
2022/07/09 12:38:13;;;;;;;1.63;1.10;;;24.70;95.60;;;;;;5015063;28;20037;-92
2022/07/09 12:40:42;;;;;;;1.17;1.08;;;24.60;93.90;;;;;;5021308;28;20034;-92
2022/07/09 12:43:07;;;;;;;1.27;1.00;;;24.50;93.70;;;;;;5029466;28;20030;-93
2022/07/09 12:45:33;;;;;;;1.77;1.05;;;24.30;92.90;;;;;;5030766;28;20432;-92